x

Western Prince William Sound (46081) Wave Buoy

10:50am - Tue 6th Dec 2016 All times are UTC.

  • Sig Wave height 0.7ft
  • Average Period 3s
  • Wind
    13mph, 16mph gusts
  • Sea Temp 42°f
  • Air Temp 33°f
  • Sea Pressure 1023.7mb

More Historic Weather Station data

Upgrade to MSW Pro to gain access to the past 30 days of data for over 8000 Wavebouys and Weather Stations around the globe.

Join Pro

Comparision Forecast

View Surf forecast
   
Tue 12/06 10:50am 0.7ft  -  3s 13 16 mph 1023.7mb 42f 33f
9:50am 1ft 2s 3s 13 18 mph 1024.1mb 42f 32f
8:50am 0.7ft  -  3s 18 20 mph 1024.4mb 42f 31f
7:50am 0.3ft  -  3s 13 18 mph 1024.9mb 42f 30f
6:50am 0.3ft  -  3s 9 11 mph 1025.2mb 42f 29f
5:50am 0.3ft  -  3s 7 11 mph 1025.3mb 42f 31f
4:50am 0.3ft  -  3s 11 13 mph 1025.5mb 42f 30f
3:50am 0.3ft  -  4s 9 11 mph 1025.8mb 42f 30f
2:50am 0.3ft  -  4s 7 9 mph 1026.1mb 42f 29f
1:50am 0.3ft  -  3s 7 9 mph 1026.4mb 42f 29f
12:50am 0.7ft  -  3s 11 13 mph 1026.4mb 42f 29f
Mon 12/05 11:50pm 0.7ft  -  3s 11 16 mph 1026.5mb 42f 29f
10:50pm 1ft 3s 3s 11 13 mph 1027mb 42f 29f
9:50pm 1.3ft 3s 3s 11 16 mph 1027.3mb 42f 29f
8:50pm 1.3ft 3s 3s 13 18 mph 1027.4mb 41f 29f
7:50pm 1.6ft 3s 3s 18 20 mph 1027.2mb 42f 28f
6:50pm 1.3ft 3s 3s 16 20 mph 1027.2mb 42f 28f
5:50pm 0.7ft  -  3s 16 18 mph 1026.9mb 42f 28f
4:50pm 0.3ft  -  2s 7 9 mph 1027mb 42f 25f
3:50pm 0.3ft  -  3s 7 9 mph 1027mb 42f 24f
2:50pm 0.3ft  -  3s 11 13 mph 1026.6mb 42f 23f
1:50pm 0.7ft  -  3s 11 13 mph 1026.8mb 43f 22f
12:50pm 1ft 3s 3s 9 13 mph 1026.3mb 43f 22f
11:50am 1ft 3s 3s 11 13 mph 1026.4mb 43f 22f
10:50am 1.3ft 3s 3s 11 16 mph 1026.1mb 44f 22f
9:50am 1ft 2s 3s 11 16 mph 1026.2mb 44f 22f
8:50am 1.3ft 2s 3s 16 22 mph 1026.1mb 44f 21f
7:50am 1.6ft 3s 3s 22 27 mph 1025.7mb 44f 21f
6:50am 1.6ft 3s 3s 25 29 mph 1025.2mb 44f 21f
5:50am 1.6ft 3s 3s 25 29 mph 1024.8mb 44f 21f
4:50am 2ft 3s 3s 25 31 mph 1024.5mb 45f 21f
3:50am 2.5ft 3s 3s 29 36 mph 1024.2mb 45f 20f
2:50am 2.5ft 3s 3s 29 36 mph 1023.9mb 45f 21f
1:50am 2.5ft 3s 3s 29 34 mph 1023.4mb 45f 21f
12:50am 2.5ft 4s 3s 29 36 mph 1023.1mb 45f 21f
Sun 12/04 11:50pm 3ft 4s 3s 29 38 mph 1022.8mb 45f 22f
10:50pm 2.5ft 3s 3s 29 36 mph 1022.3mb 45f 21f
9:50pm 2.5ft 3s 3s 29 38 mph 1021.6mb 45f 22f
8:50pm 2.5ft 3s 3s 29 36 mph 1021.3mb 45f 22f
7:50pm 3ft 3s 3s 31 38 mph 1020.9mb 47f 22f
6:50pm 3ft 3s 3s 31 38 mph 1020mb 47f 22f
5:50pm 3ft 3s 3s 34 40 mph 1019.1mb 47f 21f
4:50pm 3.5ft 4s 3s 34 40 mph 1017.9mb 46f 22f
3:50pm 3ft 4s 3s 34 40 mph 1017.2mb 46f 21f
2:50pm 3ft 4s 3s 31 38 mph 1016.3mb 46f 23f
1:50pm 3.5ft 4s 3s 34 40 mph 1015.8mb 45f 22f
12:50pm 3.5ft 4s 3s 31 40 mph 1015.1mb 45f 23f
11:50am 3.5ft 4s 3s 31 36 mph 1014.5mb 44f 23f
10:50am 3.5ft 4s 3s 31 38 mph 1014.1mb 44f 23f
9:50am 3ft 3s 3s 31 36 mph 1013.8mb 44f 24f
8:50am 3ft 3s 3s 31 38 mph 1012.9mb 44f 23f
7:50am 2.5ft 3s 3s 31 40 mph 1011.7mb 44f 23f
6:50am 3ft 4s 3s 31 43 mph 1010.9mb 45f 24f
5:50am 3ft 3s 3s 34 40 mph 1009.6mb 46f 24f
4:50am 2.5ft 3s 3s 34 40 mph 1007.9mb 45f 24f
3:50am 2.5ft 3s 3s 34 43 mph 1006.8mb 45f 24f
2:50am 3ft 3s 3s 31 36 mph 1005.5mb 45f 24f
1:50am 3ft 3s 3s 31 38 mph 1004.2mb 45f 23f
12:50am 3ft 4s 3s 29 36 mph 1003.2mb 44f 22f
Sat 12/03 11:50pm 3ft 3s 3s 31 38 mph 1001.7mb 44f 22f
10:50pm 3ft 3s 3s 31 38 mph 1001.1mb 44f 21f
9:50pm 3ft 4s 3s 31 38 mph 1000.1mb 44f 22f
8:50pm 2.5ft 3s 3s 31 36 mph 998.9mb 44f 23f
7:50pm 3ft 4s 3s 34 40 mph 997.9mb 44f 23f
6:50pm 3ft 3s 3s 34 40 mph 997.3mb 45f 24f
5:50pm 3ft 3s 3s 36 43 mph 996.7mb 47f 24f
4:50pm 3ft 3s 3s 34 40 mph 996.1mb 46f 23f
3:50pm 3.5ft 3s 3s 36 43 mph 995.5mb 46f 24f
2:50pm 3.5ft 3s 3s 34 40 mph 995.2mb 46f 24f
1:50pm 3.5ft 4s 3s 34 43 mph 994.7mb 45f 24f
12:50pm 3.5ft 4s 3s 36 43 mph 994.3mb 44f 24f
11:50am 3.5ft 4s 3s 34 43 mph 993.8mb 43f 24f
10:50am 3.5ft 4s 3s 34 40 mph 993.3mb 43f 24f
9:50am 3.5ft 4s 3s 36 43 mph 992.6mb 43f 25f
8:50am 3.5ft 4s 3s 36 43 mph 992.1mb 44f 26f
7:50am 3.5ft 4s 3s 34 40 mph 991.3mb 44f 26f
6:50am 3.5ft 4s 3s 36 43 mph 990.8mb 45f 27f
5:50am 3.5ft 4s 3s 34 40 mph 989.7mb 46f 28f
4:50am 3.5ft 4s 3s 36 43 mph 988.7mb 45f 28f
3:50am 3.5ft 4s 3s 38 45 mph 987.6mb 45f 29f
2:50am 3.5ft 4s 3s 36 45 mph 987mb 45f 30f
1:50am 3.5ft 4s 3s 36 45 mph 986.1mb 44f 30f
12:50am 4ft 4s 3s 38 47 mph 985.1mb 44f 31f
Fri 12/02 11:50pm 4ft 4s 3s 36 45 mph 984.2mb 44f 32f
10:50pm 4ft 4s 4s 38 47 mph 983.4mb 44f 32f
9:50pm 4ft 4s 4s 36 43 mph 983mb 44f 33f
8:50pm 4ft 4s 4s 36 45 mph 982.5mb 44f 34f
7:50pm 3.5ft 4s 3s 34 43 mph 981.8mb 44f 35f
6:50pm 3.5ft 4s 3s 31 40 mph 981.7mb 44f 35f
5:50pm 3ft 4s 3s 34 40 mph 980.9mb 44f 36f
4:50pm 3ft 4s 3s 31 38 mph 981.2mb 44f 37f
3:50pm 3ft 3s 3s 31 38 mph 980.8mb 44f 36f
2:50pm 2.5ft 3s 3s 29 36 mph 981mb 44f 36f
1:50pm 2ft 3s 3s 25 31 mph 981.3mb 44f 37f
12:50pm 1.6ft 3s 3s 27 36 mph 981.6mb 43f 36f
11:50am 0.7ft  -  3s 11 20 mph 983.1mb 42f 36f